Terminal Aerodrome Forecast
Issued by NWS Wichita, KS

Home | Current Version | Previous Version | Text Only | Print | Product List | Glossary On
Versions: 1 2 3 4 5 6 7 8 9 10 11 12 13 14 15 16 17 18
830
FTUS43 KICT 020520
TAFICT
TAF
KICT 020520Z 0206/0306 36007KT P6SM VCSH SCT025 OVC035
     FM021200 36012KT P6SM OVC040
     FM021600 34009KT P6SM SCT080
     FM030200 01005KT P6SM SCT200=

USA.gov is the U.S. government's official web portal to all federal, state and local government web resources and services.